createdAt,value
2022-11-02T00:01:01.448Z,98252.00
2022-11-02T00:05:02.553Z,98042.00
2022-11-02T00:09:03.604Z,98245.00
2022-11-02T00:13:04.990Z,98251.00
2022-11-02T00:17:07.163Z,98247.00
2022-11-02T00:21:08.305Z,98253.00
2022-11-02T00:25:12.181Z,98248.00
2022-11-02T00:29:13.447Z,98242.00
2022-11-02T00:33:14.383Z,98238.00
2022-11-02T00:37:15.401Z,98235.00
2022-11-02T00:41:20.101Z,98224.00
2022-11-02T00:45:22.442Z,98234.00
2022-11-02T00:49:23.424Z,98230.00
2022-11-02T00:53:24.529Z,98216.00
2022-11-02T00:57:25.560Z,98203.00
2022-11-02T01:01:26.640Z,98206.00
2022-11-02T01:05:28.848Z,98209.00
2022-11-02T01:09:29.914Z,98208.00
2022-11-02T01:13:30.985Z,98212.00
2022-11-02T01:17:32.058Z,98198.00
2022-11-02T01:21:33.240Z,98207.00
2022-11-02T01:25:34.200Z,98209.00
2022-11-02T01:29:35.195Z,98213.00
2022-11-02T01:33:36.878Z,98204.00
2022-11-02T01:37:38.076Z,98203.00
2022-11-02T01:41:39.495Z,98198.00
2022-11-02T01:45:42.663Z,98196.00
2022-11-02T01:49:46.676Z,98195.00
2022-11-02T01:53:50.418Z,98190.00
2022-11-02T01:58:00.765Z,98185.00
2022-11-02T02:02:05.447Z,98192.00
2022-11-02T02:06:10.185Z,98192.00
2022-11-02T02:10:11.707Z,98183.00
2022-11-02T02:14:19.029Z,98172.00
2022-11-02T02:18:29.683Z,98153.00
2022-11-02T02:22:37.308Z,98176.00
2022-11-02T02:26:54.121Z,98157.00
2022-11-02T02:30:58.864Z,98152.00
2022-11-02T02:35:12.627Z,98160.00
2022-11-02T02:39:29.453Z,98175.00
2022-11-02T02:43:43.366Z,98165.00
2022-11-02T02:47:50.945Z,98156.00
2022-11-02T02:51:54.781Z,98154.00
2022-11-02T02:55:59.155Z,98147.00
2022-11-02T03:00:00.204Z,98156.00
2022-11-02T03:04:01.335Z,98157.00
2022-11-02T03:08:06.438Z,98160.00
2022-11-02T03:12:29.477Z,98160.00
2022-11-02T03:16:52.434Z,98152.00
2022-11-02T03:21:11.905Z,98140.00
2022-11-02T03:25:19.423Z,98144.00
2022-11-02T03:29:26.436Z,98150.00
2022-11-02T03:33:40.393Z,98152.00
2022-11-02T03:37:53.885Z,98160.00
2022-11-02T03:41:58.042Z,98173.00
2022-11-02T03:46:02.005Z,98173.00
2022-11-02T03:50:06.525Z,98191.00
2022-11-02T03:54:16.978Z,98176.00
2022-11-02T03:58:17.944Z,98177.00
2022-11-02T04:02:19.490Z,98186.00
2022-11-02T04:06:20.611Z,98191.00
2022-11-02T04:10:21.709Z,98198.00
2022-11-02T04:14:37.459Z,98191.00
2022-11-02T04:18:57.013Z,98209.00
2022-11-02T04:23:17.133Z,98218.00
2022-11-02T04:27:20.927Z,98216.00
2022-11-02T04:31:20.842Z,98211.00
2022-11-02T04:35:21.846Z,98204.00
2022-11-02T04:39:22.799Z,98206.00
2022-11-02T04:43:23.882Z,98214.00
2022-11-02T04:47:24.812Z,98213.00
2022-11-02T04:51:28.361Z,98218.00
2022-11-02T04:55:29.692Z,98221.00
2022-11-02T04:59:30.538Z,98227.00
2022-11-02T05:03:31.389Z,98228.00
2022-11-02T05:07:32.327Z,98235.00
2022-11-02T05:11:33.793Z,98245.00
2022-11-02T05:15:34.895Z,98244.00
2022-11-02T05:19:35.732Z,98246.00
2022-11-02T05:23:38.009Z,98236.00
2022-11-02T05:27:39.062Z,98254.00
2022-11-02T05:31:40.017Z,98239.00
2022-11-02T05:35:41.296Z,98231.00
2022-11-02T05:39:44.096Z,98247.00
2022-11-02T05:43:45.509Z,98247.00
2022-11-02T05:47:46.496Z,98243.00
2022-11-02T05:51:48.683Z,98253.00
2022-11-02T05:55:50.179Z,98260.00
2022-11-02T05:59:51.041Z,98251.00
2022-11-02T06:03:53.811Z,98253.00
2022-11-02T06:07:57.396Z,98253.00
2022-11-02T06:11:58.344Z,98264.00
2022-11-02T06:16:01.705Z,98275.00
2022-11-02T06:20:02.995Z,98284.00
2022-11-02T06:24:04.353Z,98281.00
2022-11-02T06:28:05.320Z,98296.00
2022-11-02T06:32:06.385Z,98295.00
2022-11-02T06:36:07.903Z,98304.00
2022-11-02T06:40:10.281Z,98316.00
2022-11-02T06:44:11.249Z,98322.00
2022-11-02T06:48:12.243Z,98333.00
2022-11-02T06:52:13.194Z,98329.00
2022-11-02T06:56:14.474Z,98338.00
2022-11-02T07:00:21.107Z,98343.00
2022-11-02T07:04:22.034Z,98340.00
2022-11-02T07:08:23.741Z,98344.00
2022-11-02T07:12:24.811Z,98355.00
2022-11-02T07:16:25.868Z,98358.00
2022-11-02T07:20:26.906Z,98361.00
2022-11-02T07:24:27.974Z,98370.00
2022-11-02T07:28:28.917Z,98380.00
2022-11-02T07:32:29.854Z,98379.00
2022-11-02T07:36:30.822Z,98385.00
2022-11-02T07:40:35.085Z,98377.00
2022-11-02T07:44:36.148Z,98391.00
2022-11-02T07:48:37.172Z,98395.00
2022-11-02T07:52:52.149Z,98402.00
2022-11-02T07:56:53.255Z,98409.00
2022-11-02T08:01:00.149Z,98419.00
2022-11-02T08:05:01.226Z,98414.00
2022-11-02T08:09:03.544Z,98427.00
2022-11-02T08:13:04.635Z,98431.00
2022-11-02T08:17:05.500Z,98440.00
2022-11-02T08:21:06.405Z,98441.00
2022-11-02T08:25:09.301Z,98440.00
2022-11-02T08:29:10.284Z,98438.00
2022-11-02T08:33:15.009Z,98448.00
2022-11-02T08:37:16.128Z,98443.00
2022-11-02T08:41:17.429Z,98446.00
2022-11-02T08:45:18.488Z,98441.00
2022-11-02T08:49:19.656Z,98442.00
2022-11-02T08:53:20.516Z,98436.00
2022-11-02T08:57:21.616Z,98439.00
2022-11-02T09:01:22.771Z,98452.00
2022-11-02T09:05:23.828Z,98450.00
2022-11-02T09:09:24.796Z,98449.00
2022-11-02T09:13:26.136Z,98448.00
2022-11-02T09:17:28.549Z,98446.00
2022-11-02T09:21:29.644Z,98455.00
2022-11-02T09:25:30.697Z,98461.00
2022-11-02T09:29:31.626Z,98456.00
2022-11-02T09:33:33.826Z,98457.00
2022-11-02T09:37:35.876Z,98476.00
2022-11-02T09:41:40.755Z,98472.00
2022-11-02T09:45:54.526Z,98477.00
2022-11-02T09:49:58.111Z,98479.00
2022-11-02T09:54:13.143Z,98489.00
2022-11-02T09:58:15.905Z,98490.00
2022-11-02T10:02:20.724Z,98483.00
2022-11-02T10:06:24.082Z,98498.00
2022-11-02T10:10:35.111Z,98503.00
2022-11-02T10:14:40.029Z,98508.00
2022-11-02T10:18:42.131Z,98517.00
2022-11-02T10:22:45.135Z,98500.00
2022-11-02T10:26:48.061Z,98507.00
2022-11-02T10:30:49.780Z,98512.00
2022-11-02T10:34:59.304Z,98501.00
2022-11-02T10:39:04.184Z,98504.00
2022-11-02T10:43:30.238Z,98509.00
2022-11-02T10:47:35.205Z,98519.00
2022-11-02T10:51:36.245Z,98508.00
2022-11-02T10:55:50.419Z,98502.00
2022-11-02T11:00:27.213Z,98513.00
2022-11-02T11:04:30.322Z,98508.00
2022-11-02T11:08:41.484Z,98508.00
2022-11-02T11:12:42.777Z,98502.00
2022-11-02T11:16:53.990Z,98518.00
2022-11-02T11:20:56.038Z,98508.00
2022-11-02T11:25:27.036Z,98508.00
2022-11-02T11:29:25.316Z,98512.00
2022-11-02T11:33:26.588Z,98503.00
2022-11-02T11:37:28.341Z,98511.00
2022-11-02T11:41:31.655Z,98505.00
2022-11-02T11:45:33.005Z,98506.00
2022-11-02T11:53:40.465Z,98498.00
2022-11-02T11:57:43.300Z,98486.00
2022-11-02T12:01:44.581Z,98487.00
2022-11-02T12:06:08.033Z,98485.00
2022-11-02T12:10:21.909Z,98490.00
2022-11-02T12:14:44.705Z,98475.00
2022-11-02T12:18:55.732Z,98474.00
2022-11-02T12:23:27.990Z,98469.00
2022-11-02T12:27:42.900Z,98463.00
2022-11-02T12:32:01.085Z,98481.00
2022-11-02T12:36:06.260Z,98479.00
2022-11-02T12:40:14.395Z,98483.00
2022-11-02T12:44:26.427Z,98492.00
2022-11-02T12:48:31.201Z,98499.00
2022-11-02T12:52:38.905Z,98503.00
2022-11-02T12:56:50.084Z,98490.00
2022-11-02T13:01:29.712Z,98482.00
2022-11-02T13:05:43.669Z,98475.00
2022-11-02T13:09:51.828Z,98479.00
2022-11-02T13:13:56.343Z,98477.00
2022-11-02T13:18:01.202Z,98474.00
2022-11-02T13:22:03.944Z,98475.00
2022-11-02T13:26:14.644Z,98476.00
2022-11-02T13:30:17.575Z,98474.00
2022-11-02T13:34:39.361Z,98466.00
2022-11-02T13:38:50.067Z,98456.00
2022-11-02T13:43:03.841Z,98457.00
2022-11-02T13:47:14.794Z,98449.00
2022-11-02T13:51:34.313Z,98452.00
2022-11-02T13:55:50.003Z,98454.00
2022-11-02T13:59:51.231Z,98456.00
2022-11-02T14:04:00.590Z,98455.00
2022-11-02T14:08:05.585Z,98462.00
2022-11-02T14:12:23.208Z,98464.00
2022-11-02T14:16:44.751Z,98466.00
2022-11-02T14:20:46.942Z,98471.00
2022-11-02T14:24:53.317Z,98472.00
2022-11-02T14:28:55.026Z,98464.00
2022-11-02T14:33:02.586Z,98471.00
2022-11-02T14:37:10.201Z,98466.00
2022-11-02T14:41:16.002Z,98469.00
2022-11-02T14:45:44.024Z,98460.00
2022-11-02T14:49:58.009Z,98467.00
2022-11-02T14:54:05.490Z,98356.00
2022-11-02T14:58:16.062Z,98460.00
2022-11-02T15:02:20.940Z,98463.00
2022-11-02T15:06:28.702Z,98466.00
2022-11-02T15:10:33.662Z,98459.00
2022-11-02T15:14:38.431Z,98458.00
2022-11-02T15:18:39.947Z,98455.00
2022-11-02T15:22:44.553Z,98458.00
2022-11-02T15:26:55.299Z,98464.00
2022-11-02T15:30:59.466Z,98454.00
2022-11-02T15:35:00.952Z,98461.00
2022-11-02T15:39:06.375Z,98465.00
2022-11-02T15:43:14.211Z,98456.00
2022-11-02T15:47:31.730Z,98449.00
2022-11-02T15:51:36.644Z,98454.00
2022-11-02T15:56:13.369Z,98450.00
2022-11-02T16:00:17.704Z,98444.00
2022-11-02T16:04:20.356Z,98437.00
2022-11-02T16:08:24.066Z,98441.00
2022-11-02T16:12:29.108Z,98432.00
2022-11-02T16:16:35.494Z,98436.00
2022-11-02T16:20:36.156Z,98457.00
2022-11-02T16:24:41.001Z,98430.00
2022-11-02T16:28:42.021Z,98426.00
2022-11-02T16:32:43.850Z,98440.00
2022-11-02T16:36:45.845Z,98439.00
2022-11-02T16:40:47.095Z,98435.00
2022-11-02T16:45:00.479Z,98430.00
2022-11-02T16:49:14.795Z,98438.00
2022-11-02T16:53:19.557Z,98432.00
2022-11-02T16:57:26.971Z,98424.00
2022-11-02T17:01:38.179Z,98350.00
2022-11-02T17:05:41.567Z,98428.00
2022-11-02T17:09:42.765Z,98433.00
2022-11-02T17:13:50.357Z,98431.00
2022-11-02T17:18:10.238Z,98420.00
2022-11-02T17:22:26.320Z,98419.00
2022-11-02T17:26:30.665Z,98423.00
2022-11-02T17:30:38.264Z,98427.00
2022-11-02T17:34:40.100Z,98435.00
2022-11-02T17:38:41.548Z,98429.00
2022-11-02T17:42:57.824Z,98426.00
2022-11-02T17:46:58.827Z,98423.00
2022-11-02T17:51:00.132Z,98422.00
2022-11-02T17:55:01.186Z,98423.00
2022-11-02T17:59:02.158Z,98422.00
2022-11-02T18:03:04.174Z,98419.00
2022-11-02T18:07:05.163Z,98416.00
2022-11-02T18:11:08.462Z,98425.00
2022-11-02T18:15:16.199Z,98425.00
2022-11-02T18:19:17.181Z,98410.00
2022-11-02T18:23:19.071Z,98419.00
2022-11-02T18:27:21.637Z,98412.00
2022-11-02T18:31:23.066Z,98422.00
2022-11-02T18:35:24.301Z,98427.00
2022-11-02T18:39:25.396Z,98423.00
2022-11-02T18:43:26.415Z,98403.00
2022-11-02T18:47:27.361Z,98404.00
2022-11-02T18:51:28.333Z,98411.00
2022-11-02T18:55:29.423Z,98406.00
2022-11-02T18:59:30.693Z,98402.00
2022-11-02T19:03:31.645Z,98401.00
2022-11-02T19:07:51.377Z,98394.00
2022-11-02T19:12:03.527Z,98400.00
2022-11-02T19:16:05.134Z,98396.00
2022-11-02T19:20:07.161Z,98386.00
2022-11-02T19:24:08.742Z,98372.00
2022-11-02T19:28:09.886Z,98370.00
2022-11-02T19:32:11.463Z,98367.00
2022-11-02T19:36:12.630Z,98356.00
2022-11-02T19:40:14.538Z,98352.00
2022-11-02T19:44:15.561Z,98350.00
2022-11-02T19:48:16.877Z,98345.00
2022-11-02T19:52:17.847Z,98347.00
2022-11-02T19:56:20.767Z,98335.00
2022-11-02T20:00:22.022Z,98339.00
2022-11-02T20:04:23.130Z,98347.00
2022-11-02T20:08:26.072Z,98342.00
2022-11-02T20:12:27.246Z,98336.00
2022-11-02T20:16:29.184Z,98345.00
2022-11-02T20:20:30.509Z,98347.00
2022-11-02T20:24:31.897Z,98338.00
2022-11-02T20:28:42.168Z,98335.00
2022-11-02T20:32:43.426Z,98339.00
2022-11-02T20:36:45.118Z,98353.00
2022-11-02T20:40:46.362Z,98341.00
2022-11-02T20:44:48.868Z,98328.00
2022-11-02T20:48:50.623Z,98344.00
2022-11-02T20:52:53.703Z,98323.00
2022-11-02T20:56:54.869Z,98314.00
2022-11-02T21:00:57.045Z,98317.00
2022-11-02T21:04:58.325Z,98301.00
2022-11-02T21:08:59.878Z,98311.00
2022-11-02T21:13:20.079Z,98316.00
2022-11-02T21:17:21.415Z,98308.00
2022-11-02T21:21:22.592Z,98299.00
2022-11-02T21:25:23.991Z,98306.00
2022-11-02T21:29:25.418Z,98304.00
2022-11-02T21:33:26.450Z,98300.00
2022-11-02T21:37:27.633Z,98302.00
2022-11-02T21:41:29.409Z,98299.00
2022-11-02T21:45:34.956Z,98299.00
2022-11-02T21:49:33.683Z,98034.00
2022-11-02T21:53:36.737Z,98298.00
2022-11-02T21:57:38.171Z,98297.00
2022-11-02T22:01:46.212Z,98288.00
2022-11-02T22:05:56.650Z,98275.00
2022-11-02T22:09:58.017Z,98275.00
2022-11-02T22:14:00.732Z,98285.00
2022-11-02T22:18:01.962Z,98274.00
2022-11-02T22:22:03.075Z,98257.00
2022-11-02T22:26:06.659Z,98271.00
2022-11-02T22:30:08.416Z,98275.00
2022-11-02T22:34:11.571Z,98265.00
2022-11-02T22:38:31.741Z,98250.00
2022-11-02T22:42:38.190Z,98249.00
2022-11-02T22:46:40.102Z,98242.00
2022-11-02T22:50:43.435Z,98228.00
2022-11-02T22:54:44.496Z,98226.00
2022-11-02T22:58:46.684Z,98221.00
2022-11-02T23:02:48.600Z,98218.00
2022-11-02T23:06:49.641Z,98222.00
2022-11-02T23:11:16.893Z,98230.00
2022-11-02T23:15:17.962Z,98214.00
2022-11-02T23:19:29.299Z,98200.00
2022-11-02T23:23:49.596Z,98211.00
2022-11-02T23:28:14.427Z,98211.00
2022-11-02T23:32:27.703Z,98203.00
2022-11-02T23:36:28.824Z,98205.00
2022-11-02T23:40:31.790Z,98206.00
2022-11-02T23:44:32.950Z,98207.00
2022-11-02T23:48:34.204Z,98195.00
2022-11-02T23:52:53.996Z,98201.00
2022-11-02T23:56:55.139Z,98200.00
